Time;durP1;ratioP1;P1;durP2;ratioP2;P2;SDS_P1;SDS_P2;PMS_P1;PMS_P2;Temp;Humidity;BMP_temperature;BMP_pressure;BME280_temperature;BME280_humidity;BME280_pressure;Samples;Min_cycle;Max_cycle;Signal;HPM_P1;HPM_P2
2021/05/09 00:00:28;;;;;;;0.60;0.20;;;21.60;36.70;;;;;;5039697;28;20044;-44
2021/05/09 00:02:54;;;;;;;0.73;0.20;;;21.60;36.70;;;;;;5033523;28;20063;-45
2021/05/09 00:05:21;;;;;;;0.40;0.13;;;21.60;36.70;;;;;;5025995;28;20044;-43
2021/05/09 00:07:47;;;;;;;0.40;0.17;;;21.60;36.70;;;;;;5029523;28;20824;-46
2021/05/09 00:10:14;;;;;;;0.90;0.20;;;21.60;36.70;;;;;;5030738;28;20056;-46
2021/05/09 00:12:40;;;;;;;0.90;0.28;;;21.60;36.70;;;;;;5030760;28;20482;-45
2021/05/09 00:15:10;;;;;;;1.02;0.17;;;21.60;36.70;;;;;;5027363;28;20029;-44
2021/05/09 00:17:36;;;;;;;0.50;0.17;;;21.60;36.80;;;;;;5029580;28;20109;-45
2021/05/09 00:20:05;;;;;;;0.77;0.20;;;21.60;36.70;;;;;;5035910;28;20124;-45
2021/05/09 00:22:31;;;;;;;1.10;0.20;;;21.60;36.70;;;;;;5031026;28;20064;-44
2021/05/09 00:24:57;;;;;;;0.57;0.20;;;21.60;36.70;;;;;;5031256;28;20080;-44
2021/05/09 00:27:23;;;;;;;0.60;0.20;;;21.60;36.70;;;;;;5013623;28;20116;-47
2021/05/09 00:29:49;;;;;;;0.73;0.20;;;21.60;36.70;;;;;;5039156;28;20036;-46
2021/05/09 00:32:15;;;;;;;0.60;0.20;;;21.60;36.80;;;;;;5030835;28;20116;-47
2021/05/09 00:34:40;;;;;;;0.65;0.20;;;21.50;36.80;;;;;;5034941;28;20138;-46
2021/05/09 00:37:06;;;;;;;1.08;0.30;;;21.50;36.70;;;;;;5029261;28;20021;-47
2021/05/09 00:39:32;;;;;;;1.27;0.20;;;21.50;36.70;;;;;;5038325;28;20056;-47
2021/05/09 00:42:03;;;;;;;0.50;0.10;;;21.50;36.70;;;;;;5031370;28;20490;-47
2021/05/09 00:44:29;;;;;;;0.50;0.13;;;21.50;36.80;;;;;;5035830;28;20548;-46
2021/05/09 00:46:55;;;;;;;0.40;0.13;;;21.50;36.70;;;;;;5029979;28;20095;-47
2021/05/09 00:49:22;;;;;;;0.73;0.17;;;21.50;36.80;;;;;;5040847;28;20029;-44
2021/05/09 00:51:50;;;;;;;1.15;0.20;;;21.50;36.70;;;;;;5029986;28;20072;-47
2021/05/09 00:54:22;;;;;;;0.63;0.10;;;21.50;36.70;;;;;;5033189;28;20041;-46
2021/05/09 00:56:49;;;;;;;0.32;0.15;;;21.50;36.70;;;;;;5030052;28;20017;-43
2021/05/09 00:59:16;;;;;;;0.40;0.20;;;21.50;36.80;;;;;;5038979;28;20018;-45
2021/05/09 01:01:44;;;;;;;0.60;0.20;;;21.50;36.80;;;;;;5028600;28;20034;-47
2021/05/09 01:04:12;;;;;;;0.60;0.20;;;21.50;36.80;;;;;;5034868;28;20037;-44
2021/05/09 01:06:40;;;;;;;0.40;0.10;;;21.50;36.80;;;;;;5021942;28;20021;-45
2021/05/09 01:09:07;;;;;;;0.35;0.10;;;21.50;37.30;;;;;;5037716;28;20028;-47
2021/05/09 01:11:33;;;;;;;0.50;0.10;;;21.50;36.80;;;;;;5032055;28;20029;-49
2021/05/09 01:13:59;;;;;;;0.38;0.10;;;21.50;36.80;;;;;;5040931;28;20511;-44
2021/05/09 01:16:25;;;;;;;0.25;0.10;;;21.50;36.80;;;;;;5030576;28;20097;-46
2021/05/09 01:18:51;;;;;;;0.30;0.10;;;21.50;36.80;;;;;;5037629;28;20538;-46
2021/05/09 01:21:17;;;;;;;0.47;0.10;;;21.40;36.70;;;;;;5028558;28;20593;-48
2021/05/09 01:23:43;;;;;;;0.40;0.10;;;21.40;36.70;;;;;;5030604;28;20091;-45
2021/05/09 01:26:09;;;;;;;0.40;0.10;;;21.50;36.80;;;;;;5021478;28;20076;-46
2021/05/09 01:28:35;;;;;;;0.30;0.10;;;21.50;36.80;;;;;;5036548;28;20182;-45
2021/05/09 01:31:00;;;;;;;0.70;0.20;;;21.40;36.70;;;;;;5033757;28;20026;-47
2021/05/09 01:33:26;;;;;;;0.40;0.13;;;21.40;36.70;;;;;;5041081;28;20130;-48
2021/05/09 01:35:53;;;;;;;0.45;0.10;;;21.40;36.70;;;;;;5030917;28;20517;-47
2021/05/09 01:38:19;;;;;;;0.43;0.20;;;21.50;36.80;;;;;;5031912;28;20113;-45
2021/05/09 01:40:44;;;;;;;0.45;0.20;;;21.40;36.70;;;;;;5032111;28;20546;-45
2021/05/09 01:43:10;;;;;;;0.70;0.10;;;21.40;36.70;;;;;;5032103;28;20121;-45
2021/05/09 01:45:36;;;;;;;0.75;0.10;;;21.50;36.80;;;;;;5033592;28;20033;-46
2021/05/09 01:48:03;;;;;;;0.30;0.10;;;21.40;36.70;;;;;;5033728;28;20029;-44
2021/05/09 01:50:29;;;;;;;0.30;0.10;;;21.40;36.70;;;;;;5031020;28;20033;-48
2021/05/09 01:52:55;;;;;;;0.55;0.10;;;21.40;36.70;;;;;;5050482;22;20053;-49
2021/05/09 01:55:24;;;;;;;0.60;0.10;;;21.40;36.70;;;;;;5046407;28;20025;-50
2021/05/09 01:57:50;;;;;;;1.27;0.10;;;21.40;36.70;;;;;;5048500;28;20017;-46
2021/05/09 02:00:21;;;;;;;0.50;0.13;;;21.40;36.70;;;;;;5033237;28;20063;-49
2021/05/09 02:02:47;;;;;;;0.20;0.10;;;21.40;36.70;;;;;;5047859;28;20043;-49
2021/05/09 02:05:14;;;;;;;0.30;0.10;;;21.40;36.70;;;;;;5030549;28;20367;-49
2021/05/09 02:07:40;;;;;;;0.20;0.10;;;21.40;36.70;;;;;;5033798;28;20037;-50
2021/05/09 02:10:08;;;;;;;0.30;0.10;;;21.40;36.60;;;;;;5027901;28;20029;-49
2021/05/09 02:12:35;;;;;;;0.45;0.10;;;21.50;36.70;;;;;;5017490;28;20028;-49
2021/05/09 02:15:02;;;;;;;0.50;0.13;;;21.40;36.60;;;;;;5029184;28;20021;-50
2021/05/09 02:17:28;;;;;;;0.30;0.00;;;21.40;36.70;;;;;;5033386;28;20022;-50
2021/05/09 02:19:54;;;;;;;0.20;0.10;;;21.40;36.70;;;;;;5037670;28;20141;-50
2021/05/09 02:22:20;;;;;;;0.30;0.10;;;21.40;36.70;;;;;;5032740;28;20045;-51
2021/05/09 02:24:46;;;;;;;0.80;0.10;;;21.40;36.70;;;;;;5037381;28;20128;-51
2021/05/09 02:27:12;;;;;;;0.25;0.03;;;21.40;36.70;;;;;;5028385;28;20463;-50
2021/05/09 02:29:38;;;;;;;0.77;0.10;;;21.40;36.70;;;;;;5029198;28;20029;-49
2021/05/09 02:32:05;;;;;;;0.20;0.10;;;21.40;36.70;;;;;;5032784;28;20024;-48
2021/05/09 02:34:32;;;;;;;0.32;0.10;;;21.40;36.60;;;;;;5034726;28;20398;-50
2021/05/09 02:36:58;;;;;;;0.60;0.10;;;21.40;36.60;;;;;;5014197;28;20033;-48
2021/05/09 02:39:24;;;;;;;0.45;0.10;;;21.40;36.70;;;;;;5026419;28;20026;-49
2021/05/09 02:41:51;;;;;;;0.25;0.05;;;21.40;36.70;;;;;;5032778;28;20052;-49
2021/05/09 02:44:17;;;;;;;0.30;0.10;;;21.40;36.70;;;;;;5039704;28;20029;-51
2021/05/09 02:46:43;;;;;;;0.28;0.10;;;21.40;36.70;;;;;;5037449;28;20034;-50
2021/05/09 02:49:09;;;;;;;0.40;0.10;;;21.40;36.70;;;;;;5039104;28;20106;-49
2021/05/09 02:51:35;;;;;;;0.17;0.05;;;21.40;36.70;;;;;;5036034;28;20402;-50
2021/05/09 02:54:01;;;;;;;0.20;0.10;;;21.40;36.70;;;;;;5032190;28;20034;-50
2021/05/09 02:56:27;;;;;;;0.32;0.15;;;21.40;36.70;;;;;;5026702;28;20522;-50
2021/05/09 02:58:53;;;;;;;0.38;0.00;;;21.40;36.70;;;;;;5032932;28;20040;-49
2021/05/09 03:01:19;;;;;;;0.28;0.00;;;21.40;36.70;;;;;;5028541;28;20029;-50
2021/05/09 03:03:45;;;;;;;0.60;0.10;;;21.40;36.70;;;;;;5051152;28;20416;-49
2021/05/09 03:06:11;;;;;;;0.22;0.00;;;21.40;36.70;;;;;;5043707;28;20025;-51
2021/05/09 03:08:37;;;;;;;0.35;0.10;;;21.40;36.70;;;;;;5038118;28;20036;-49
2021/05/09 03:11:03;;;;;;;0.47;0.00;;;21.40;36.70;;;;;;5032163;28;20433;-51
2021/05/09 03:13:30;;;;;;;0.17;0.10;;;21.40;36.70;;;;;;5034127;28;20097;-50
2021/05/09 03:15:57;;;;;;;0.40;0.10;;;21.40;36.70;;;;;;5033118;28;20037;-49
2021/05/09 03:18:23;;;;;;;0.30;0.10;;;21.40;36.70;;;;;;5037776;28;20079;-50
2021/05/09 03:20:50;;;;;;;0.40;0.10;;;21.40;36.70;;;;;;5029742;28;20447;-49
2021/05/09 03:23:15;;;;;;;0.13;0.00;;;21.40;36.70;;;;;;5044118;28;20087;-49
2021/05/09 03:25:41;;;;;;;0.55;0.10;;;21.40;36.70;;;;;;5027488;28;20065;-49
2021/05/09 03:28:07;;;;;;;0.13;0.00;;;21.40;36.70;;;;;;5031693;28;20402;-50
2021/05/09 03:30:33;;;;;;;0.40;0.10;;;21.40;36.70;;;;;;5023308;28;20089;-50
2021/05/09 03:32:59;;;;;;;0.20;0.00;;;21.40;36.70;;;;;;5045789;28;20457;-49
2021/05/09 03:35:25;;;;;;;0.20;0.10;;;21.40;36.70;;;;;;5033454;28;20053;-51
2021/05/09 03:37:51;;;;;;;0.20;0.05;;;21.40;36.70;;;;;;5036306;28;20096;-49
2021/05/09 03:40:17;;;;;;;0.30;0.10;;;21.30;36.70;;;;;;5027143;28;20013;-51
2021/05/09 03:42:43;;;;;;;0.20;0.10;;;21.40;36.70;;;;;;5042427;28;20033;-49
2021/05/09 03:45:10;;;;;;;0.15;0.00;;;21.40;36.70;;;;;;5035704;28;20045;-49
2021/05/09 03:47:38;;;;;;;0.10;0.00;;;21.30;36.70;;;;;;5041955;28;20086;-50
2021/05/09 03:50:05;;;;;;;0.32;0.10;;;21.30;36.70;;;;;;5028612;28;20430;-49
2021/05/09 03:52:31;;;;;;;0.47;0.10;;;21.30;36.80;;;;;;5022210;28;20025;-50
2021/05/09 03:54:57;;;;;;;0.40;0.10;;;21.30;36.70;;;;;;5037929;28;20025;-51
2021/05/09 03:57:23;;;;;;;0.28;0.10;;;21.30;36.70;;;;;;5022598;28;20490;-50
2021/05/09 03:59:51;;;;;;;0.35;0.10;;;21.30;36.80;;;;;;5043512;28;20051;-49
2021/05/09 04:02:17;;;;;;;0.10;0.03;;;21.30;36.80;;;;;;5033815;28;20083;-50
2021/05/09 04:04:43;;;;;;;0.30;0.10;;;21.40;36.80;;;;;;5045670;28;20504;-47
2021/05/09 04:07:09;;;;;;;0.30;0.10;;;21.30;36.80;;;;;;5026099;28;20039;-49
2021/05/09 04:09:35;;;;;;;0.13;0.10;;;21.30;36.80;;;;;;5032260;28;20445;-50
2021/05/09 04:12:01;;;;;;;0.30;0.10;;;21.30;36.80;;;;;;5041500;28;20644;-49
2021/05/09 04:14:28;;;;;;;0.45;0.10;;;21.30;36.80;;;;;;5033825;28;20168;-50
2021/05/09 04:16:54;;;;;;;0.77;0.13;;;21.30;36.80;;;;;;5029150;28;20017;-50
2021/05/09 04:19:21;;;;;;;0.20;0.10;;;21.30;36.80;;;;;;5032379;28;20027;-48
2021/05/09 04:21:46;;;;;;;0.98;0.10;;;21.30;36.80;;;;;;5032262;28;20022;-49
2021/05/09 04:24:12;;;;;;;0.45;0.10;;;21.30;36.80;;;;;;5038781;28;20025;-49
2021/05/09 04:26:38;;;;;;;0.30;0.10;;;21.30;36.80;;;;;;5004912;28;20962;-50
2021/05/09 04:29:04;;;;;;;0.70;0.10;;;21.30;36.80;;;;;;5034955;28;20025;-49
2021/05/09 04:31:31;;;;;;;0.20;0.10;;;21.30;36.80;;;;;;5024682;28;20037;-49
2021/05/09 04:33:57;;;;;;;0.30;0.10;;;21.30;36.80;;;;;;5037389;28;20010;-49
2021/05/09 04:36:23;;;;;;;0.13;0.00;;;21.30;36.80;;;;;;5030747;28;20028;-51
2021/05/09 04:38:49;;;;;;;0.30;0.10;;;21.30;36.90;;;;;;5040340;28;20029;-50
2021/05/09 04:41:15;;;;;;;0.52;0.10;;;21.30;36.80;;;;;;5022204;28;20093;-50
2021/05/09 04:43:41;;;;;;;0.45;0.05;;;21.30;36.80;;;;;;5014452;28;20494;-51
2021/05/09 04:46:06;;;;;;;1.13;0.20;;;21.30;36.90;;;;;;5034289;28;20029;-48
2021/05/09 04:48:32;;;;;;;2.08;0.17;;;21.30;36.80;;;;;;5045283;28;20056;-49
2021/05/09 04:50:58;;;;;;;0.10;0.03;;;21.30;36.80;;;;;;5032883;28;20017;-49
2021/05/09 04:53:26;;;;;;;0.20;0.10;;;21.20;36.80;;;;;;5035488;28;20414;-49
2021/05/09 04:55:53;;;;;;;0.32;0.10;;;21.30;36.80;;;;;;5030947;28;20025;-49
2021/05/09 04:58:20;;;;;;;0.20;0.10;;;21.20;36.90;;;;;;5035910;28;20079;-50
2021/05/09 05:00:46;;;;;;;0.30;0.10;;;21.30;36.90;;;;;;5035076;28;20043;-49
2021/05/09 05:03:12;;;;;;;0.82;0.10;;;21.30;36.80;;;;;;5032563;28;20120;-50
2021/05/09 05:05:38;;;;;;;0.30;0.10;;;21.30;36.80;;;;;;5035041;28;20184;-50
2021/05/09 05:08:04;;;;;;;0.47;0.08;;;21.30;36.80;;;;;;5036165;28;20029;-49
2021/05/09 05:10:30;;;;;;;0.50;0.10;;;21.30;36.80;;;;;;5029577;28;20033;-51
2021/05/09 05:12:56;;;;;;;0.20;0.10;;;21.30;36.80;;;;;;5032908;28;20017;-50
2021/05/09 05:15:22;;;;;;;0.30;0.10;;;21.30;36.80;;;;;;5032521;28;20025;-48
2021/05/09 05:17:48;;;;;;;0.30;0.10;;;21.30;36.70;;;;;;5040243;28;20501;-50
2021/05/09 05:20:15;;;;;;;0.20;0.00;;;21.30;36.80;;;;;;5037350;28;20068;-49
2021/05/09 05:22:41;;;;;;;0.40;0.10;;;21.30;36.80;;;;;;5036744;28;20033;-50
2021/05/09 05:25:07;;;;;;;0.20;0.10;;;21.30;36.80;;;;;;5037686;28;20088;-49
2021/05/09 05:27:33;;;;;;;0.40;0.10;;;21.30;36.70;;;;;;5026142;28;20508;-49
2021/05/09 05:29:59;;;;;;;0.20;0.03;;;21.30;36.80;;;;;;5038635;28;20028;-51
2021/05/09 05:32:25;;;;;;;0.43;0.10;;;21.30;36.70;;;;;;5039457;28;20033;-50
2021/05/09 05:34:51;;;;;;;0.40;0.10;;;21.30;36.80;;;;;;5011366;28;20044;-49
2021/05/09 05:37:17;;;;;;;0.32;0.10;;;21.30;36.80;;;;;;5040034;28;20021;-50
2021/05/09 05:39:43;;;;;;;0.30;0.10;;;21.30;36.80;;;;;;5035794;28;20041;-50
2021/05/09 05:42:09;;;;;;;0.28;0.10;;;21.30;36.80;;;;;;5044175;28;20024;-50
2021/05/09 05:44:34;;;;;;;0.60;0.10;;;21.30;36.80;;;;;;5023684;28;20033;-50
2021/05/09 05:47:00;;;;;;;0.10;0.05;;;21.30;36.70;;;;;;5036524;28;20640;-51
2021/05/09 05:49:26;;;;;;;0.13;0.10;;;21.30;36.80;;;;;;5029389;28;20033;-49
2021/05/09 05:51:52;;;;;;;0.30;0.10;;;21.30;36.80;;;;;;5041397;28;20021;-49
2021/05/09 05:54:18;;;;;;;0.20;0.10;;;21.30;36.90;;;;;;5006305;28;20026;-50
2021/05/09 05:56:44;;;;;;;0.20;0.05;;;21.20;36.90;;;;;;5004209;28;20022;-49
2021/05/09 05:59:10;;;;;;;0.20;0.00;;;21.30;37.00;;;;;;5028540;28;20038;-49
2021/05/09 06:01:36;;;;;;;0.20;0.10;;;21.30;36.90;;;;;;5034816;28;20368;-48
2021/05/09 06:04:02;;;;;;;0.03;0.00;;;21.20;36.80;;;;;;5037300;28;20026;-50
2021/05/09 06:06:28;;;;;;;0.30;0.10;;;21.30;36.90;;;;;;5021607;28;20114;-49
2021/05/09 06:08:54;;;;;;;0.15;0.00;;;21.30;37.00;;;;;;5033338;28;20702;-50
2021/05/09 06:11:20;;;;;;;0.22;0.10;;;21.30;37.00;;;;;;5043265;28;20504;-49
2021/05/09 06:13:46;;;;;;;0.40;0.10;;;21.30;37.00;;;;;;5022740;28;20034;-51
2021/05/09 06:16:12;;;;;;;0.25;0.03;;;21.30;37.00;;;;;;5033367;28;20134;-50
2021/05/09 06:18:38;;;;;;;0.20;0.10;;;21.30;37.00;;;;;;5034690;28;20484;-51
2021/05/09 06:21:04;;;;;;;0.38;0.10;;;21.30;36.90;;;;;;5041498;28;20108;-50
2021/05/09 06:23:30;;;;;;;0.30;0.10;;;21.30;36.90;;;;;;5028134;28;20034;-49
2021/05/09 06:25:56;;;;;;;0.90;0.00;;;21.30;37.00;;;;;;5030912;28;20028;-50
2021/05/09 06:28:22;;;;;;;0.30;0.10;;;21.30;37.50;;;;;;5029506;28;20053;-50
2021/05/09 06:30:49;;;;;;;0.32;0.10;;;21.30;36.90;;;;;;5045735;28;20394;-50
2021/05/09 06:33:15;;;;;;;0.15;0.05;;;21.30;36.90;;;;;;5036202;28;20028;-47
2021/05/09 06:35:42;;;;;;;0.13;0.03;;;21.30;36.90;;;;;;5040883;28;20036;-49
2021/05/09 06:38:08;;;;;;;0.57;0.10;;;21.30;36.90;;;;;;5034508;28;20044;-50
2021/05/09 06:40:35;;;;;;;0.20;0.10;;;21.30;36.90;;;;;;5027846;28;20379;-50
2021/05/09 06:43:03;;;;;;;0.30;0.00;;;21.30;36.90;;;;;;5038806;28;20036;-49
2021/05/09 06:45:31;;;;;;;0.30;0.05;;;21.30;36.90;;;;;;5037921;28;20033;-50
2021/05/09 06:48:01;;;;;;;0.20;0.10;;;21.30;36.90;;;;;;5032768;28;20496;-48
2021/05/09 06:50:29;;;;;;;0.30;0.10;;;21.30;36.90;;;;;;5035394;28;20567;-50
2021/05/09 06:52:56;;;;;;;0.43;0.10;;;21.30;36.90;;;;;;5028991;28;20515;-50
2021/05/09 06:55:22;;;;;;;0.30;0.10;;;21.30;36.90;;;;;;5030131;28;20502;-50
2021/05/09 06:57:48;;;;;;;0.32;0.10;;;21.30;36.90;;;;;;5032402;28;20098;-50
2021/05/09 07:00:16;;;;;;;0.70;0.08;;;21.30;36.90;;;;;;5045059;28;20036;-50
2021/05/09 07:02:42;;;;;;;0.25;0.00;;;21.30;36.90;;;;;;5037867;28;20037;-49
2021/05/09 07:05:08;;;;;;;0.20;0.05;;;21.40;36.90;;;;;;5042291;28;20033;-50
2021/05/09 07:07:53;;;;;;;1.75;0.10;;;21.30;36.80;;;;;;5040297;28;20032;-51
2021/05/09 07:10:20;;;;;;;1.35;0.10;;;21.40;36.80;;;;;;5042680;28;20108;-50
2021/05/09 07:12:46;;;;;;;0.10;0.00;;;21.40;36.80;;;;;;5037299;28;20037;-51
2021/05/09 07:15:15;;;;;;;0.65;0.10;;;21.40;36.80;;;;;;5039029;28;20022;-50
2021/05/09 07:17:53;;;;;;;0.30;0.10;;;21.40;36.80;;;;;;5021366;28;20059;-49
2021/05/09 07:20:19;;;;;;;0.10;0.00;;;21.40;36.70;;;;;;5041769;28;20035;-50
2021/05/09 07:22:52;;;;;;;0.10;0.00;;;21.40;36.70;;;;;;5038633;28;20384;-51
2021/05/09 07:25:18;;;;;;;0.40;0.00;;;21.40;36.70;;;;;;5035379;28;20053;-50
2021/05/09 07:27:44;;;;;;;0.20;0.00;;;21.40;36.70;;;;;;5029888;28;20044;-50
2021/05/09 07:30:11;;;;;;;0.28;0.08;;;21.40;36.70;;;;;;5038662;28;20029;-51
2021/05/09 07:32:37;;;;;;;0.10;0.00;;;21.40;36.70;;;;;;5022549;28;20056;-50
2021/05/09 07:35:03;;;;;;;0.43;0.10;;;21.40;36.70;;;;;;5037170;28;20054;-50
2021/05/09 07:37:29;;;;;;;0.13;0.10;;;21.40;36.60;;;;;;5036583;28;20025;-49
2021/05/09 07:39:55;;;;;;;0.20;0.10;;;21.40;36.60;;;;;;5041894;28;20024;-49
2021/05/09 07:42:21;;;;;;;0.20;0.00;;;21.50;36.60;;;;;;5040938;28;20065;-50
2021/05/09 07:44:46;;;;;;;0.17;0.10;;;21.40;36.50;;;;;;5040201;28;20136;-50
2021/05/09 07:47:12;;;;;;;0.38;0.00;;;21.50;36.60;;;;;;5035857;28;20040;-50
2021/05/09 07:49:38;;;;;;;0.15;0.03;;;21.50;36.50;;;;;;5025711;28;20044;-51
2021/05/09 07:52:04;;;;;;;0.57;0.10;;;21.50;36.50;;;;;;5026097;28;20033;-50
2021/05/09 07:54:30;;;;;;;0.10;0.00;;;21.50;36.50;;;;;;5033245;28;20032;-51
2021/05/09 07:56:56;;;;;;;0.40;0.10;;;21.50;36.50;;;;;;5025068;28;20560;-50
2021/05/09 07:59:22;;;;;;;0.40;0.10;;;21.50;36.50;;;;;;5032787;28;20030;-49
2021/05/09 08:01:48;;;;;;;0.15;0.00;;;21.60;36.50;;;;;;5011989;28;20104;-50
2021/05/09 08:04:14;;;;;;;0.10;0.00;;;21.60;36.60;;;;;;5031242;28;20077;-51
2021/05/09 08:06:42;;;;;;;0.10;0.00;;;21.50;36.60;;;;;;5026649;28;20656;-50
2021/05/09 08:09:07;;;;;;;0.30;0.00;;;21.60;36.70;;;;;;5037611;28;20040;-50
2021/05/09 08:11:33;;;;;;;0.15;0.00;;;21.50;36.70;;;;;;5034927;28;20036;-51
2021/05/09 08:13:59;;;;;;;0.40;0.10;;;21.60;37.40;;;;;;5034501;28;20030;-49
2021/05/09 08:16:26;;;;;;;0.20;0.03;;;21.60;36.80;;;;;;5033614;28;20066;-49
2021/05/09 08:18:53;;;;;;;0.60;0.00;;;21.60;36.80;;;;;;5030018;28;21152;-50
2021/05/09 08:21:19;;;;;;;0.20;0.00;;;21.60;36.80;;;;;;5022247;28;20117;-49
2021/05/09 08:23:45;;;;;;;0.32;0.10;;;21.60;36.80;;;;;;5047609;28;20028;-50
2021/05/09 08:26:11;;;;;;;0.30;0.00;;;21.60;36.80;;;;;;5020872;28;20065;-50
2021/05/09 08:28:37;;;;;;;0.20;0.10;;;21.70;36.90;;;;;;5029663;28;20677;-50
2021/05/09 08:31:04;;;;;;;0.20;0.10;;;21.70;36.90;;;;;;5026280;28;20592;-49
2021/05/09 08:33:29;;;;;;;0.50;0.10;;;21.70;36.90;;;;;;5030164;28;20022;-48
2021/05/09 08:35:55;;;;;;;0.10;0.00;;;21.70;36.90;;;;;;5026053;28;20032;-49
2021/05/09 08:38:23;;;;;;;0.20;0.10;;;21.70;36.90;;;;;;5034040;28;20025;-50
2021/05/09 08:40:50;;;;;;;0.30;0.03;;;21.70;36.90;;;;;;5019810;28;20030;-52
2021/05/09 08:43:16;;;;;;;0.00;0.00;;;21.80;36.90;;;;;;4999521;28;20098;-50
2021/05/09 08:45:42;;;;;;;0.10;0.00;;;21.80;36.90;;;;;;5025986;28;20026;-51
2021/05/09 08:48:14;;;;;;;0.40;0.10;;;21.80;36.90;;;;;;5032636;28;20116;-52
2021/05/09 08:50:40;;;;;;;0.10;0.00;;;21.80;36.90;;;;;;5028309;28;20029;-49
2021/05/09 08:53:07;;;;;;;0.77;0.10;;;21.80;36.90;;;;;;5026369;28;20033;-52
2021/05/09 08:55:34;;;;;;;0.32;0.10;;;21.80;36.90;;;;;;5025318;28;20018;-49
2021/05/09 08:57:59;;;;;;;0.10;0.00;;;21.80;36.90;;;;;;5020951;28;20032;-50
2021/05/09 09:00:26;;;;;;;0.38;0.10;;;21.90;36.90;;;;;;5022903;28;20037;-49
2021/05/09 09:02:53;;;;;;;0.30;0.10;;;21.90;36.90;;;;;;5032164;28;20026;-50
2021/05/09 09:05:34;;;;;;;0.55;0.10;;;21.90;36.90;;;;;;5042521;28;20030;-49
2021/05/09 09:08:00;;;;;;;0.10;0.00;;;21.90;36.90;;;;;;5028484;28;20041;-50
2021/05/09 09:10:44;;;;;;;0.40;0.10;;;21.90;36.90;;;;;;5036568;28;20033;-50
2021/05/09 09:13:20;;;;;;;0.28;0.10;;;21.90;36.90;;;;;;5030932;28;20052;-50
2021/05/09 09:15:48;;;;;;;0.63;0.10;;;21.90;37.00;;;;;;5035516;28;20029;-49
2021/05/09 09:18:40;;;;;;;0.43;0.20;;;21.90;36.90;;;;;;5045291;28;20025;-50
2021/05/09 09:21:25;;;;;;;0.55;0.10;;;22.00;37.00;;;;;;5033713;28;20029;-51
2021/05/09 09:24:06;;;;;;;0.50;0.10;;;22.00;37.00;;;;;;5046774;28;20033;-50
2021/05/09 09:26:47;;;;;;;0.63;0.15;;;22.00;37.00;;;;;;5022184;28;20049;-50
2021/05/09 09:29:23;;;;;;;0.30;0.10;;;22.00;37.00;;;;;;5031417;28;20498;-50
2021/05/09 09:31:54;;;;;;;0.30;0.10;;;22.10;37.00;;;;;;5032160;28;20107;-51
2021/05/09 09:34:20;;;;;;;0.50;0.05;;;22.10;37.10;;;;;;5036118;28;20032;-51
2021/05/09 09:36:46;;;;;;;0.43;0.10;;;22.10;37.20;;;;;;5040234;28;20168;-50
2021/05/09 09:39:12;;;;;;;0.30;0.10;;;22.10;37.20;;;;;;5020187;28;20641;-49
2021/05/09 09:41:49;;;;;;;0.50;0.10;;;22.10;37.30;;;;;;5034108;28;20037;-50
2021/05/09 09:44:16;;;;;;;0.32;0.15;;;22.10;37.30;;;;;;5030456;28;20033;-49
2021/05/09 09:46:53;;;;;;;0.85;0.10;;;22.10;37.30;;;;;;5033336;28;20403;-48
2021/05/09 09:49:19;;;;;;;0.30;0.10;;;22.10;37.50;;;;;;5040580;28;20033;-49
2021/05/09 09:52:05;;;;;;;0.50;0.10;;;22.20;37.50;;;;;;5040333;28;20024;-49
2021/05/09 09:54:38;;;;;;;0.50;0.10;;;22.20;37.50;;;;;;5026949;28;20100;-49
2021/05/09 09:57:10;;;;;;;0.32;0.10;;;22.20;37.70;;;;;;5023811;28;20051;-49
2021/05/09 09:59:36;;;;;;;0.75;0.20;;;22.20;37.60;;;;;;5045750;28;20112;-50
2021/05/09 10:02:04;;;;;;;0.40;0.10;;;22.20;37.60;;;;;;5027036;28;20034;-51
2021/05/09 10:04:30;;;;;;;0.50;0.20;;;22.30;37.70;;;;;;5022499;28;20080;-50
2021/05/09 10:06:56;;;;;;;0.35;0.10;;;22.30;37.70;;;;;;5024872;28;20021;-49
2021/05/09 10:09:22;;;;;;;0.50;0.10;;;22.30;37.80;;;;;;5025932;28;20041;-49
2021/05/09 10:11:52;;;;;;;0.50;0.10;;;22.30;37.80;;;;;;5004842;28;20135;-48
2021/05/09 10:14:18;;;;;;;0.77;0.10;;;22.30;37.90;;;;;;5022495;28;21268;-49
2021/05/09 10:16:49;;;;;;;0.82;0.20;;;22.30;37.90;;;;;;5025499;28;20028;-51
2021/05/09 10:19:21;;;;;;;0.55;0.10;;;22.30;38.40;;;;;;5005257;28;20025;-48
2021/05/09 10:21:47;;;;;;;;;;;22.30;37.80;;;;;;5024738;28;20074;-49
2021/05/09 10:24:13;;;;;;;0.25;0.10;;;22.30;37.90;;;;;;5039358;28;19995;-49
2021/05/09 10:26:52;;;;;;;2.00;0.20;;;22.30;38.00;;;;;;5026678;28;21398;-50
2021/05/09 10:29:34;;;;;;;0.50;0.10;;;22.40;38.10;;;;;;5023864;28;20029;-50
2021/05/09 10:32:29;;;;;;;0.40;0.10;;;22.40;38.20;;;;;;5022876;28;20021;-49
2021/05/09 10:34:58;;;;;;;0.60;0.10;;;22.40;38.30;;;;;;5024790;28;20025;-50
2021/05/09 10:37:36;;;;;;;0.40;0.20;;;22.40;38.30;;;;;;5033238;28;20061;-50
2021/05/09 10:40:22;;;;;;;0.35;0.13;;;22.40;38.30;;;;;;5034416;28;20025;-49
2021/05/09 10:43:15;;;;;;;0.38;0.20;;;22.40;38.30;;;;;;5028832;28;20033;-50
2021/05/09 10:45:41;;;;;;;0.55;0.20;;;22.40;38.30;;;;;;5023233;28;20054;-50
2021/05/09 10:48:21;;;;;;;0.40;0.20;;;22.40;38.30;;;;;;5035471;28;20025;-49
2021/05/09 10:50:57;;;;;;;0.63;0.20;;;22.40;38.40;;;;;;5034518;28;20611;-51
2021/05/09 10:53:35;;;;;;;0.95;0.10;;;22.40;38.50;;;;;;5012760;28;20025;-50
2021/05/09 10:56:16;;;;;;;0.28;0.10;;;22.40;38.40;;;;;;5026429;28;20045;-49
2021/05/09 10:58:46;;;;;;;1.52;0.10;;;22.40;38.40;;;;;;5028337;28;20087;-49
2021/05/09 11:01:14;;;;;;;0.90;0.10;;;22.40;38.40;;;;;;5026877;28;20530;-49
2021/05/09 11:03:40;;;;;;;0.55;0.20;;;22.40;38.40;;;;;;5039566;28;20037;-50
2021/05/09 11:06:09;;;;;;;0.40;0.10;;;22.40;38.40;;;;;;5039534;28;20030;-49
2021/05/09 11:08:48;;;;;;;0.32;0.13;;;22.50;38.40;;;;;;5034274;28;20025;-50
2021/05/09 11:11:29;;;;;;;0.45;0.20;;;22.40;38.50;;;;;;5026550;28;20029;-49
2021/05/09 11:14:01;;;;;;;0.50;0.20;;;22.40;38.40;;;;;;5029154;28;20482;-49
2021/05/09 11:16:42;;;;;;;0.32;0.10;;;22.50;38.50;;;;;;5022214;28;20323;-50
2021/05/09 11:19:17;;;;;;;0.40;0.20;;;22.50;38.50;;;;;;5021715;28;20586;-49
2021/05/09 11:21:44;;;;;;;0.88;0.10;;;22.50;38.40;;;;;;5023042;28;20044;-49
2021/05/09 11:24:20;;;;;;;0.70;0.20;;;22.50;38.40;;;;;;5021707;28;20067;-50
2021/05/09 11:26:50;;;;;;;0.50;0.22;;;22.40;38.30;;;;;;5020893;28;20113;-50
2021/05/09 11:29:19;;;;;;;0.50;0.20;;;22.50;38.40;;;;;;5024004;28;20037;-51
2021/05/09 11:31:50;;;;;;;0.40;0.20;;;22.50;38.50;;;;;;5023025;28;20049;-49
2021/05/09 11:34:17;;;;;;;0.55;0.10;;;22.50;38.70;;;;;;5021302;28;20039;-49
2021/05/09 11:36:46;;;;;;;1.25;0.20;;;22.50;38.50;;;;;;5022415;28;20026;-49
2021/05/09 11:39:20;;;;;;;0.60;0.20;;;22.50;38.50;;;;;;5020842;28;20025;-49
2021/05/09 11:42:08;;;;;;;0.40;0.20;;;22.60;38.50;;;;;;5024502;28;20821;-49
2021/05/09 11:44:47;;;;;;;0.40;0.20;;;22.60;39.00;;;;;;5021231;28;20654;-49
2021/05/09 11:47:23;;;;;;;0.30;0.20;;;22.60;38.60;;;;;;5022073;28;20459;-50
2021/05/09 11:49:50;;;;;;;1.08;0.20;;;22.60;38.70;;;;;;5022119;28;20029;-49
2021/05/09 11:52:26;;;;;;;0.73;0.17;;;22.60;38.60;;;;;;5021698;28;20440;-49
2021/05/09 11:54:58;;;;;;;0.30;0.10;;;22.70;38.70;;;;;;5020734;28;20056;-49
2021/05/09 11:57:26;;;;;;;0.73;0.20;;;22.70;38.70;;;;;;5021049;28;20047;-49
2021/05/09 11:59:55;;;;;;;0.73;0.20;;;22.70;38.70;;;;;;5019587;28;20153;-49
2021/05/09 12:02:23;;;;;;;1.00;0.20;;;22.70;38.70;;;;;;5021796;28;20029;-49
2021/05/09 12:04:58;;;;;;;0.55;0.20;;;22.80;38.80;;;;;;5023256;28;20033;-51
2021/05/09 12:07:49;;;;;;;0.98;0.22;;;22.80;39.20;;;;;;5021604;28;20663;-52
2021/05/09 12:10:26;;;;;;;2.33;0.40;;;23.00;39.50;;;;;;5022213;28;20034;-50
2021/05/09 12:13:05;;;;;;;1.05;0.28;;;23.00;39.30;;;;;;5021940;28;20060;-48
2021/05/09 12:15:36;;;;;;;0.50;0.28;;;23.10;39.50;;;;;;5021698;28;20093;-52
2021/05/09 12:18:03;;;;;;;0.45;0.20;;;23.10;39.90;;;;;;5022885;28;20026;-52
2021/05/09 12:20:43;;;;;;;1.55;0.20;;;23.10;39.80;;;;;;5023100;28;20029;-52
2021/05/09 12:23:16;;;;;;;0.50;0.20;;;23.00;39.70;;;;;;5027623;28;20051;-52
2021/05/09 12:25:44;;;;;;;0.88;0.20;;;23.00;39.60;;;;;;5002994;28;20040;-52
2021/05/09 12:28:15;;;;;;;2.47;0.17;;;23.00;39.60;;;;;;5033094;28;20397;-52
2021/05/09 12:30:43;;;;;;;1.25;0.20;;;23.00;39.50;;;;;;5039457;28;20137;-54
2021/05/09 12:33:10;;;;;;;2.13;0.25;;;23.10;39.40;;;;;;5040862;28;20028;-51
2021/05/09 12:35:48;;;;;;;0.85;0.20;;;23.10;39.50;;;;;;5030206;28;20053;-52
2021/05/09 12:38:28;;;;;;;0.60;0.20;;;23.10;39.40;;;;;;5038026;28;20029;-51
2021/05/09 12:41:07;;;;;;;1.20;0.30;;;23.10;39.30;;;;;;5034338;28;20025;-51
2021/05/09 12:43:56;;;;;;;0.60;0.20;;;23.10;39.30;;;;;;5036410;28;20028;-53
2021/05/09 12:46:46;;;;;;;0.40;0.30;;;23.10;39.40;;;;;;5038725;28;20029;-51
2021/05/09 12:49:13;;;;;;;0.90;0.28;;;23.10;39.50;;;;;;5024917;28;20075;-53
2021/05/09 12:52:03;;;;;;;1.08;0.20;;;23.10;39.40;;;;;;5046701;28;20024;-51
2021/05/09 12:54:36;;;;;;;0.93;0.30;;;23.20;39.40;;;;;;5030198;28;20030;-52